createdAt,value
2023-02-22T00:01:08.067Z,86.73
2023-02-22T00:03:53.418Z,64.07
2023-02-22T00:06:38.608Z,94.57
2023-02-22T00:09:23.516Z,131.95
2023-02-22T00:12:10.042Z,77.45
2023-02-22T00:14:54.813Z,57.37
2023-02-22T00:17:40.064Z,52.55
2023-02-22T00:20:25.159Z,56.70
2023-02-22T00:23:16.375Z,66.22
2023-02-22T00:26:01.266Z,56.95
2023-02-22T00:28:53.456Z,71.67
2023-02-22T00:31:39.273Z,62.72
2023-02-22T00:34:24.185Z,63.25
2023-02-22T00:37:12.475Z,90.57
2023-02-22T00:39:57.405Z,54.95
2023-02-22T00:42:42.864Z,66.57
2023-02-22T00:45:29.473Z,63.10
2023-02-22T00:48:14.804Z,66.88
2023-02-22T00:50:59.653Z,77.53
2023-02-22T00:53:45.290Z,59.67
2023-02-22T00:56:32.158Z,74.63
2023-02-22T00:59:17.437Z,77.32
2023-02-22T01:02:02.658Z,84.13
2023-02-22T01:04:47.812Z,53.40
2023-02-22T01:07:33.213Z,94.15
2023-02-22T01:10:20.886Z,61.80
2023-02-22T01:13:12.008Z,83.50
2023-02-22T01:15:57.437Z,49.88
2023-02-22T01:18:42.498Z,67.40
2023-02-22T01:21:27.510Z,51.05
2023-02-22T01:24:16.108Z,63.73
2023-02-22T01:27:02.408Z,47.42
2023-02-22T01:29:49.913Z,90.50
2023-02-22T01:32:39.995Z,59.72
2023-02-22T01:35:28.512Z,66.95
2023-02-22T01:38:14.345Z,66.47
2023-02-22T01:41:00.829Z,63.85
2023-02-22T01:43:45.807Z,71.30
2023-02-22T01:46:31.579Z,69.65
2023-02-22T01:49:16.943Z,65.68
2023-02-22T01:52:06.443Z,87.53
2023-02-22T01:54:56.928Z,100.63
2023-02-22T01:57:42.081Z,82.90
2023-02-22T02:00:27.602Z,81.00
2023-02-22T02:03:19.171Z,47.67
2023-02-22T02:06:07.834Z,65.57
2023-02-22T02:09:20.082Z,76.55
2023-02-22T02:12:09.557Z,39.15
2023-02-22T02:15:17.121Z,39.78
2023-02-22T02:18:09.113Z,81.25
2023-02-22T02:21:19.038Z,63.97
2023-02-22T02:24:12.981Z,57.33
2023-02-22T02:27:33.863Z,40.03
2023-02-22T02:30:48.462Z,56.42
2023-02-22T02:33:58.631Z,35.42
2023-02-22T02:37:02.780Z,28.90
2023-02-22T02:40:12.756Z,30.83
2023-02-22T02:43:04.906Z,39.88
2023-02-22T02:46:07.482Z,27.35
2023-02-22T02:48:57.609Z,40.00
2023-02-22T02:51:48.494Z,46.13
2023-02-22T02:54:34.133Z,53.15
2023-02-22T02:57:19.215Z,47.70
2023-02-22T03:00:24.633Z,62.33
2023-02-22T03:03:33.887Z,37.63
2023-02-22T03:06:59.278Z,49.70
2023-02-22T03:10:08.279Z,41.97
2023-02-22T03:13:13.188Z,38.28
2023-02-22T03:16:14.978Z,59.13
2023-02-22T03:19:17.252Z,50.13
2023-02-22T03:22:24.701Z,58.63
2023-02-22T03:25:20.051Z,31.00
2023-02-22T03:28:11.426Z,46.78
2023-02-22T03:31:07.158Z,39.60
2023-02-22T03:33:56.316Z,52.40
2023-02-22T03:36:52.260Z,36.00
2023-02-22T03:39:38.263Z,66.72
2023-02-22T03:42:33.737Z,39.13
2023-02-22T03:45:21.997Z,39.85
2023-02-22T03:48:17.459Z,39.78
2023-02-22T03:51:04.321Z,32.03
2023-02-22T03:53:49.437Z,43.47
2023-02-22T03:56:47.257Z,40.72
2023-02-22T03:59:33.176Z,31.58
2023-02-22T04:02:18.969Z,42.45
2023-02-22T04:05:03.975Z,29.13
2023-02-22T04:07:49.437Z,48.13
2023-02-22T04:10:34.439Z,62.70
2023-02-22T04:13:19.281Z,49.00
2023-02-22T04:16:04.672Z,24.65
2023-02-22T04:18:49.809Z,55.30
2023-02-22T04:21:34.995Z,47.35
2023-02-22T04:24:19.699Z,44.05
2023-02-22T04:27:05.000Z,43.38
2023-02-22T04:29:49.909Z,62.33
2023-02-22T04:32:35.070Z,55.00
2023-02-22T04:35:20.281Z,50.30
2023-02-22T04:38:05.510Z,54.25
2023-02-22T04:40:50.397Z,38.30
2023-02-22T04:43:35.532Z,37.95
2023-02-22T04:46:20.405Z,32.80
2023-02-22T04:49:05.618Z,65.82
2023-02-22T04:51:50.522Z,50.50
2023-02-22T04:54:35.636Z,39.45
2023-02-22T04:57:20.526Z,41.30
2023-02-22T05:00:06.498Z,46.70
2023-02-22T05:02:51.435Z,57.97
2023-02-22T05:05:36.665Z,27.70
2023-02-22T05:08:21.480Z,38.85
2023-02-22T05:11:06.723Z,54.90
2023-02-22T05:13:51.509Z,46.00
2023-02-22T05:16:36.804Z,49.80
2023-02-22T05:19:22.151Z,35.28
2023-02-22T05:22:07.341Z,44.28
2023-02-22T05:24:52.266Z,22.75
2023-02-22T05:27:37.477Z,61.00
2023-02-22T05:30:25.822Z,49.22
2023-02-22T05:33:11.059Z,40.10
2023-02-22T05:35:56.270Z,61.72
2023-02-22T05:38:43.677Z,65.80
2023-02-22T05:41:29.080Z,37.93
2023-02-22T05:44:14.307Z,60.47
2023-02-22T05:46:59.198Z,63.35
2023-02-22T05:49:44.420Z,22.02
2023-02-22T05:52:29.372Z,32.45
2023-02-22T05:55:17.673Z,28.07
2023-02-22T05:58:05.623Z,44.55
2023-02-22T06:00:50.542Z,37.70
2023-02-22T06:03:35.647Z,52.75
2023-02-22T06:06:22.186Z,49.53
2023-02-22T06:09:07.686Z,29.53
2023-02-22T06:11:54.419Z,26.25
2023-02-22T06:14:40.897Z,25.25
2023-02-22T06:17:26.019Z,34.40
2023-02-22T06:20:13.156Z,23.70
2023-02-22T06:22:59.089Z,24.83
2023-02-22T06:25:44.076Z,18.67
2023-02-22T06:28:29.030Z,21.67
2023-02-22T06:31:14.439Z,31.15
2023-02-22T06:33:59.544Z,33.28
2023-02-22T06:36:44.725Z,18.17
2023-02-22T06:39:29.528Z,23.40
2023-02-22T06:42:14.945Z,22.77
2023-02-22T06:45:00.513Z,20.25
2023-02-22T06:47:45.795Z,17.98
2023-02-22T06:50:31.351Z,23.07
2023-02-22T06:53:16.301Z,33.25
2023-02-22T06:56:02.170Z,18.20
2023-02-22T06:58:47.104Z,25.42
2023-02-22T07:01:32.263Z,24.15
2023-02-22T07:04:17.179Z,18.30
2023-02-22T07:07:02.563Z,26.15
2023-02-22T07:09:47.779Z,21.80
2023-02-22T07:12:32.724Z,22.90
2023-02-22T07:15:18.200Z,21.63
2023-02-22T07:18:03.922Z,22.47
2023-02-22T07:20:48.673Z,39.17
2023-02-22T07:23:33.660Z,21.95
2023-02-22T07:26:19.091Z,24.08
2023-02-22T07:29:04.221Z,22.08
2023-02-22T07:31:49.286Z,38.97
2023-02-22T07:34:34.187Z,22.52
2023-02-22T07:37:18.933Z,22.83
2023-02-22T07:40:04.319Z,40.78
2023-02-22T07:43:06.779Z,26.10
2023-02-22T07:45:55.093Z,23.43
2023-02-22T07:48:40.260Z,29.20
2023-02-22T07:51:24.959Z,44.95
2023-02-22T07:54:10.146Z,18.20
2023-02-22T07:56:54.820Z,26.10
2023-02-22T07:59:39.824Z,25.40
2023-02-22T08:02:25.961Z,22.65
2023-02-22T08:05:11.317Z,21.05
2023-02-22T08:07:56.264Z,20.25
2023-02-22T08:10:42.072Z,34.25
2023-02-22T08:13:27.188Z,26.83
2023-02-22T08:16:12.373Z,32.42
2023-02-22T08:18:57.160Z,35.28
2023-02-22T08:21:42.492Z,25.15
2023-02-22T08:24:27.173Z,23.83
2023-02-22T08:27:12.478Z,22.83
2023-02-22T08:29:57.641Z,31.25
2023-02-22T08:32:42.860Z,24.27
2023-02-22T08:35:29.298Z,23.13
2023-02-22T08:38:23.850Z,20.83
2023-02-22T08:41:08.566Z,20.07
2023-02-22T08:43:53.530Z,19.42
2023-02-22T08:46:38.889Z,21.58
2023-02-22T08:49:23.936Z,22.98
2023-02-22T08:52:09.233Z,20.73
2023-02-22T08:54:54.034Z,24.97
2023-02-22T08:57:39.335Z,41.17
2023-02-22T09:00:29.333Z,22.67
2023-02-22T09:03:15.158Z,25.48
2023-02-22T09:06:00.681Z,23.73
2023-02-22T09:08:45.385Z,25.60
2023-02-22T09:11:30.583Z,23.90
2023-02-22T09:14:16.442Z,24.85
2023-02-22T09:17:01.511Z,26.90
2023-02-22T09:19:46.445Z,21.85
2023-02-22T09:22:31.459Z,23.17
2023-02-22T09:25:18.196Z,18.95
2023-02-22T09:28:03.734Z,21.77
2023-02-22T09:30:49.024Z,20.52
2023-02-22T09:33:34.183Z,23.98
2023-02-22T09:36:21.643Z,23.50
2023-02-22T09:39:07.456Z,22.58
2023-02-22T09:42:01.361Z,27.48
2023-02-22T09:44:48.433Z,27.85
2023-02-22T09:48:08.057Z,23.75
2023-02-22T09:51:04.011Z,19.00
2023-02-22T09:53:52.167Z,19.50
2023-02-22T09:56:37.205Z,19.90
2023-02-22T09:59:31.220Z,18.83
2023-02-22T10:02:26.573Z,17.50
2023-02-22T10:05:20.927Z,17.57
2023-02-22T10:08:14.664Z,22.80
2023-02-22T10:11:10.333Z,21.20
2023-02-22T10:14:09.257Z,21.48
2023-02-22T10:17:12.979Z,16.52
2023-02-22T10:20:42.816Z,15.93
2023-02-22T10:23:58.580Z,23.73
2023-02-22T10:26:46.713Z,15.32
2023-02-22T10:29:46.455Z,15.88
2023-02-22T10:32:43.113Z,20.05
2023-02-22T10:35:32.761Z,16.50
2023-02-22T10:38:17.524Z,17.10
2023-02-22T10:41:08.621Z,14.45
2023-02-22T10:43:54.062Z,16.15
2023-02-22T10:46:41.896Z,19.50
2023-02-22T10:49:41.078Z,13.30
2023-02-22T10:52:34.348Z,13.73
2023-02-22T10:55:19.497Z,13.05
2023-02-22T10:58:07.294Z,12.52
2023-02-22T11:00:52.317Z,10.80
2023-02-22T11:03:38.042Z,10.63
2023-02-22T11:06:23.171Z,8.85
2023-02-22T11:09:22.237Z,8.50
2023-02-22T11:12:10.163Z,7.70
2023-02-22T11:14:55.997Z,8.52
2023-02-22T11:17:41.277Z,7.53
2023-02-22T11:20:34.303Z,6.82
2023-02-22T11:23:23.371Z,7.78
2023-02-22T11:26:08.495Z,5.78
2023-02-22T11:28:56.115Z,7.65
2023-02-22T11:31:46.265Z,7.63
2023-02-22T11:34:39.237Z,7.53
2023-02-22T11:37:36.884Z,7.47
2023-02-22T11:40:23.112Z,10.80
2023-02-22T11:43:16.293Z,9.10
2023-02-22T11:46:04.981Z,9.37
2023-02-22T11:49:04.465Z,9.00
2023-02-22T11:52:28.539Z,9.68
2023-02-22T11:55:43.188Z,9.10
2023-02-22T11:58:50.036Z,7.72
2023-02-22T12:01:54.110Z,7.70
2023-02-22T12:05:11.936Z,11.65
2023-02-22T12:08:17.552Z,7.72
2023-02-22T12:11:13.039Z,8.85
2023-02-22T12:14:31.953Z,12.95
2023-02-22T12:18:00.175Z,16.07
2023-02-22T12:20:51.760Z,8.30
2023-02-22T12:24:05.607Z,7.60
2023-02-22T12:26:58.611Z,7.28
2023-02-22T12:29:52.906Z,8.95
2023-02-22T12:32:43.330Z,8.00
2023-02-22T12:35:36.309Z,12.02
2023-02-22T12:38:31.294Z,8.60
2023-02-22T12:41:26.911Z,8.60
2023-02-22T12:44:20.281Z,8.50
2023-02-22T12:47:08.077Z,8.83
2023-02-22T12:50:03.158Z,12.20
2023-02-22T12:53:26.527Z,9.85
2023-02-22T12:56:28.397Z,9.00
2023-02-22T12:59:25.209Z,8.35
2023-02-22T13:02:22.295Z,7.77
2023-02-22T13:05:15.448Z,8.40
2023-02-22T13:08:29.565Z,9.63
2023-02-22T13:11:41.794Z,8.77
2023-02-22T13:14:32.821Z,8.63
2023-02-22T13:17:32.895Z,10.83
2023-02-22T13:20:29.065Z,8.68
2023-02-22T13:23:21.865Z,7.30
2023-02-22T13:26:33.707Z,8.38
2023-02-22T13:29:32.870Z,7.68
2023-02-22T13:32:43.620Z,8.03
2023-02-22T13:36:00.801Z,10.90
2023-02-22T13:39:16.803Z,9.15
2023-02-22T13:42:42.425Z,7.85
2023-02-22T13:46:17.913Z,8.00
2023-02-22T13:49:12.184Z,6.60
2023-02-22T13:52:07.646Z,7.03
2023-02-22T13:55:10.801Z,10.70
2023-02-22T13:58:03.664Z,10.02
2023-02-22T14:00:57.050Z,7.68
2023-02-22T14:03:42.343Z,7.97
2023-02-22T14:06:37.930Z,8.68
2023-02-22T14:09:45.706Z,9.25
2023-02-22T14:12:30.924Z,8.88
2023-02-22T14:15:29.485Z,8.45
2023-02-22T14:18:17.346Z,9.43
2023-02-22T14:21:17.149Z,9.07
2023-02-22T14:24:09.569Z,8.88
2023-02-22T14:27:01.410Z,10.80
2023-02-22T14:29:55.581Z,9.23
2023-02-22T14:32:40.702Z,10.87
2023-02-22T14:35:49.965Z,8.80
2023-02-22T14:38:35.154Z,9.75
2023-02-22T14:41:27.620Z,8.98
2023-02-22T14:44:13.913Z,9.60
2023-02-22T14:47:04.836Z,8.53
2023-02-22T14:49:54.702Z,13.38
2023-02-22T14:52:42.274Z,10.82
2023-02-22T14:55:31.331Z,10.65
2023-02-22T14:58:25.542Z,9.18
2023-02-22T15:01:33.830Z,10.77
2023-02-22T15:04:28.314Z,8.05
2023-02-22T15:07:21.779Z,10.10
2023-02-22T15:10:17.461Z,11.68
2023-02-22T15:13:12.276Z,13.82
2023-02-22T15:16:03.325Z,15.97
2023-02-22T15:18:53.324Z,12.43
2023-02-22T15:21:45.766Z,11.48
2023-02-22T15:24:34.216Z,12.60
2023-02-22T15:27:19.598Z,14.10
2023-02-22T15:30:08.566Z,15.20
2023-02-22T15:33:04.080Z,11.82
2023-02-22T15:35:57.641Z,11.57
2023-02-22T15:38:51.603Z,9.88
2023-02-22T15:41:36.722Z,11.10
2023-02-22T15:44:23.985Z,11.93
2023-02-22T15:47:27.451Z,12.18
2023-02-22T15:50:25.463Z,9.98
2023-02-22T15:53:28.093Z,12.15
2023-02-22T15:56:16.700Z,10.88
2023-02-22T15:59:15.112Z,12.70
2023-02-22T16:02:00.460Z,12.65
2023-02-22T16:04:51.400Z,11.05
2023-02-22T16:07:49.579Z,12.38
2023-02-22T16:10:34.578Z,13.15
2023-02-22T16:13:31.518Z,14.67
2023-02-22T16:16:17.356Z,10.05
2023-02-22T16:19:17.568Z,16.63
2023-02-22T16:22:05.097Z,13.57
2023-02-22T16:24:52.347Z,13.00
2023-02-22T16:27:47.151Z,10.73
2023-02-22T16:30:35.112Z,13.10
2023-02-22T16:33:20.430Z,13.15
2023-02-22T16:36:07.815Z,14.88
2023-02-22T16:38:53.639Z,18.02
2023-02-22T16:41:38.901Z,13.30
2023-02-22T16:44:25.494Z,17.13
2023-02-22T16:47:12.077Z,13.85
2023-02-22T16:49:57.010Z,17.33
2023-02-22T16:52:42.036Z,16.60
2023-02-22T16:55:27.478Z,17.93
2023-02-22T16:58:14.424Z,19.02
2023-02-22T17:00:59.553Z,17.13
2023-02-22T17:03:44.697Z,19.67
2023-02-22T17:06:29.769Z,20.15
2023-02-22T17:09:19.970Z,20.00
2023-02-22T17:12:05.126Z,20.65
2023-02-22T17:14:50.216Z,21.58
2023-02-22T17:17:35.274Z,24.92
2023-02-22T17:20:29.849Z,19.48
2023-02-22T17:23:15.010Z,19.33
2023-02-22T17:26:04.370Z,18.10
2023-02-22T17:28:49.173Z,15.63
2023-02-22T17:31:34.672Z,12.68
2023-02-22T17:34:19.917Z,13.95
2023-02-22T17:37:04.990Z,12.07
2023-02-22T17:39:50.097Z,12.02
2023-02-22T17:42:35.266Z,12.48
2023-02-22T17:45:23.058Z,13.77
2023-02-22T17:48:09.372Z,14.15
2023-02-22T17:50:54.674Z,15.37
2023-02-22T17:53:40.319Z,10.57
2023-02-22T17:56:25.581Z,12.68
2023-02-22T17:59:11.061Z,14.27
2023-02-22T18:01:56.202Z,10.55
2023-02-22T18:04:41.261Z,14.67
2023-02-22T18:07:26.262Z,13.60
2023-02-22T18:10:12.260Z,13.30
2023-02-22T18:13:01.768Z,14.88
2023-02-22T18:15:46.976Z,11.55
2023-02-22T18:18:32.575Z,14.47
2023-02-22T18:21:17.608Z,15.57
2023-02-22T18:24:04.056Z,13.18
2023-02-22T18:26:50.227Z,17.38
2023-02-22T18:29:35.136Z,13.15
2023-02-22T18:32:20.707Z,14.33
2023-02-22T18:35:06.582Z,17.55
2023-02-22T18:37:51.598Z,14.55
2023-02-22T18:40:36.792Z,19.17
2023-02-22T18:43:22.000Z,16.33
2023-02-22T18:46:21.987Z,12.70
2023-02-22T18:49:07.007Z,19.58
2023-02-22T18:51:51.969Z,16.58
2023-02-22T18:54:47.082Z,14.80
2023-02-22T18:57:31.845Z,22.75
2023-02-22T19:00:24.801Z,20.17
2023-02-22T19:03:09.649Z,21.40
2023-02-22T19:06:00.184Z,17.13
2023-02-22T19:08:46.958Z,13.50
2023-02-22T19:11:32.026Z,18.48
2023-02-22T19:14:17.751Z,17.20
2023-02-22T19:17:02.982Z,14.65
2023-02-22T19:19:48.520Z,14.18
2023-02-22T19:22:34.626Z,14.65
2023-02-22T19:25:19.570Z,16.45
2023-02-22T19:28:04.776Z,17.80
2023-02-22T19:30:49.864Z,16.42
2023-02-22T19:33:34.985Z,16.38
2023-02-22T19:36:22.820Z,17.33
2023-02-22T19:39:08.345Z,16.77
2023-02-22T19:41:53.197Z,16.63
2023-02-22T19:44:38.538Z,18.10
2023-02-22T19:47:23.692Z,27.83
2023-02-22T19:50:08.828Z,37.63
2023-02-22T19:52:55.817Z,52.47
2023-02-22T19:55:41.052Z,47.23
2023-02-22T19:58:25.885Z,30.50
2023-02-22T20:01:15.621Z,28.40
2023-02-22T20:04:08.891Z,24.15
2023-02-22T20:06:54.700Z,19.38
2023-02-22T20:09:40.178Z,18.90
2023-02-22T20:12:25.364Z,23.00
2023-02-22T20:15:11.865Z,25.15
2023-02-22T20:17:57.767Z,24.38
2023-02-22T20:20:42.630Z,17.98
2023-02-22T20:23:27.455Z,25.07
2023-02-22T20:26:19.424Z,22.02
2023-02-22T20:29:05.950Z,21.33
2023-02-22T20:31:53.483Z,23.13
2023-02-22T20:34:38.445Z,23.42
2023-02-22T20:37:24.023Z,19.00
2023-02-22T20:40:10.167Z,21.73
2023-02-22T20:42:56.144Z,20.15
2023-02-22T20:45:41.546Z,26.80
2023-02-22T20:48:26.309Z,22.17
2023-02-22T20:51:14.316Z,23.80
2023-02-22T20:54:00.801Z,19.35
2023-02-22T20:56:47.763Z,22.23
2023-02-22T20:59:32.975Z,20.33
2023-02-22T21:02:18.071Z,26.40
2023-02-22T21:05:03.520Z,22.90
2023-02-22T21:07:48.702Z,23.27
2023-02-22T21:10:41.287Z,26.25
2023-02-22T21:13:26.954Z,25.08
2023-02-22T21:16:19.554Z,27.73
2023-02-22T21:19:06.492Z,26.63
2023-02-22T21:21:54.838Z,31.88
2023-02-22T21:24:40.153Z,29.98
2023-02-22T21:27:25.262Z,29.67
2023-02-22T21:30:10.988Z,30.83
2023-02-22T21:32:55.955Z,29.67
2023-02-22T21:35:42.960Z,30.20
2023-02-22T21:38:28.994Z,29.48
2023-02-22T21:41:16.340Z,29.77
2023-02-22T21:44:01.383Z,28.55
2023-02-22T21:46:49.811Z,31.00
2023-02-22T21:49:34.952Z,28.48
2023-02-22T21:52:21.479Z,30.17
2023-02-22T21:55:07.014Z,30.85
2023-02-22T21:57:52.384Z,30.60
2023-02-22T22:00:42.418Z,30.63
2023-02-22T22:03:27.236Z,31.73
2023-02-22T22:06:13.688Z,30.85
2023-02-22T22:09:03.782Z,28.75
2023-02-22T22:11:53.230Z,32.22
2023-02-22T22:14:38.197Z,32.00
2023-02-22T22:17:23.030Z,32.80
2023-02-22T22:20:10.988Z,32.40
2023-02-22T22:22:55.867Z,31.55
2023-02-22T22:25:40.856Z,30.92
2023-02-22T22:28:26.886Z,34.87
2023-02-22T22:31:13.325Z,33.45
2023-02-22T22:33:58.417Z,32.03
2023-02-22T22:36:44.175Z,30.48
2023-02-22T22:39:29.160Z,31.50
2023-02-22T22:42:14.261Z,36.53
2023-02-22T22:44:59.153Z,30.92
2023-02-22T22:47:45.938Z,31.33
2023-02-22T22:50:31.024Z,30.10
2023-02-22T22:53:16.442Z,33.40
2023-02-22T22:56:14.112Z,33.07
2023-02-22T22:58:59.342Z,31.38
2023-02-22T23:01:44.833Z,34.30
2023-02-22T23:04:30.274Z,35.30
2023-02-22T23:07:15.826Z,36.22
2023-02-22T23:10:00.714Z,34.57
2023-02-22T23:12:46.038Z,36.05
2023-02-22T23:15:30.992Z,35.42
2023-02-22T23:18:20.413Z,33.13
2023-02-22T23:21:06.126Z,34.08
2023-02-22T23:23:59.838Z,36.63
2023-02-22T23:26:51.184Z,37.92
2023-02-22T23:29:38.969Z,37.03
2023-02-22T23:32:23.891Z,36.92
2023-02-22T23:35:11.340Z,37.97
2023-02-22T23:37:58.463Z,37.43
2023-02-22T23:40:44.628Z,35.33
2023-02-22T23:43:32.445Z,38.55
2023-02-22T23:46:20.765Z,35.63
2023-02-22T23:49:05.555Z,40.53
2023-02-22T23:51:51.009Z,39.87
2023-02-22T23:54:40.103Z,30.65
2023-02-22T23:57:25.851Z,36.95
